createdAt,value
2018-02-17T00:00:30.844Z,0
2018-02-17T00:01:11.395Z,0
2018-02-17T00:01:51.952Z,0
2018-02-17T00:02:32.497Z,0
2018-02-17T00:03:13.054Z,0
2018-02-17T00:03:53.636Z,0
2018-02-17T00:04:34.177Z,0
2018-02-17T00:05:14.766Z,0
2018-02-17T00:05:55.313Z,0
2018-02-17T00:06:35.851Z,0
2018-02-17T00:07:16.417Z,0
2018-02-17T00:07:56.963Z,0
2018-02-17T00:08:37.514Z,0
2018-02-17T00:09:18.053Z,0
2018-02-17T00:09:58.592Z,0
2018-02-17T00:10:39.143Z,0
2018-02-17T00:11:19.685Z,0
2018-02-17T00:12:00.239Z,0
2018-02-17T00:12:40.801Z,0
2018-02-17T00:13:21.345Z,0
2018-02-17T00:14:01.921Z,0
2018-02-17T00:14:42.470Z,0
2018-02-17T00:15:23.021Z,0
2018-02-17T00:16:03.576Z,0
2018-02-17T00:16:44.125Z,0
2018-02-17T00:17:24.678Z,0
2018-02-17T00:18:05.231Z,0
2018-02-17T00:18:45.772Z,0
2018-02-17T00:19:26.291Z,0
2018-02-17T00:20:06.841Z,0
2018-02-17T00:20:47.410Z,0
2018-02-17T00:21:27.967Z,0
2018-02-17T00:22:08.540Z,0
2018-02-17T00:22:49.120Z,0
2018-02-17T00:23:29.668Z,0
2018-02-17T00:24:10.217Z,0
2018-02-17T00:24:50.767Z,0
2018-02-17T00:25:31.330Z,0
2018-02-17T00:26:11.881Z,0
2018-02-17T00:26:52.442Z,0
2018-02-17T00:27:32.994Z,0
2018-02-17T00:28:13.528Z,0
2018-02-17T00:28:54.058Z,0
2018-02-17T00:29:34.612Z,0
2018-02-17T00:30:15.169Z,0
2018-02-17T00:30:55.731Z,0
2018-02-17T00:31:36.271Z,0
2018-02-17T00:32:16.827Z,0
2018-02-17T00:32:57.392Z,0
2018-02-17T00:33:37.960Z,0
2018-02-17T00:34:18.520Z,0
2018-02-17T00:34:59.067Z,0
2018-02-17T00:35:39.609Z,0
2018-02-17T00:36:20.191Z,0
2018-02-17T00:37:00.704Z,0
2018-02-17T00:37:41.262Z,0
2018-02-17T00:38:21.823Z,0
2018-02-17T00:39:02.350Z,0
2018-02-17T00:39:42.905Z,0
2018-02-17T00:40:23.521Z,0
2018-02-17T00:41:04.027Z,0
2018-02-17T00:41:44.571Z,0
2018-02-17T00:42:25.136Z,0
2018-02-17T00:43:05.686Z,0
2018-02-17T00:43:46.242Z,0
2018-02-17T00:44:26.790Z,0
2018-02-17T00:45:07.354Z,0
2018-02-17T00:45:47.909Z,0
2018-02-17T00:46:28.477Z,0
2018-02-17T00:47:09.067Z,0
2018-02-17T00:47:49.571Z,0
2018-02-17T00:48:30.108Z,0
2018-02-17T00:49:10.656Z,0
2018-02-17T00:49:51.208Z,0
2018-02-17T00:50:31.794Z,0
2018-02-17T00:51:12.346Z,0
2018-02-17T00:51:52.887Z,0
2018-02-17T00:52:33.448Z,0
2018-02-17T00:53:14.000Z,0
2018-02-17T00:53:54.552Z,0
2018-02-17T00:54:35.104Z,0
2018-02-17T00:55:15.666Z,0
2018-02-17T00:55:56.241Z,0
2018-02-17T00:56:36.786Z,0
2018-02-17T00:57:17.350Z,0
2018-02-17T00:57:57.926Z,0
2018-02-17T00:58:38.483Z,0
2018-02-17T00:59:19.026Z,0
2018-02-17T00:59:59.579Z,0
2018-02-17T01:00:40.135Z,0
2018-02-17T01:01:20.690Z,0
2018-02-17T01:02:01.246Z,0
2018-02-17T01:02:41.801Z,0
2018-02-17T01:03:22.352Z,0
2018-02-17T01:04:02.901Z,0
2018-02-17T01:04:43.437Z,0
2018-02-17T01:05:24.001Z,0
2018-02-17T01:06:04.547Z,0
2018-02-17T01:06:45.087Z,0
2018-02-17T01:07:25.636Z,0
2018-02-17T01:08:06.186Z,0
2018-02-17T01:08:46.734Z,0
2018-02-17T01:09:27.291Z,0
2018-02-17T01:10:07.842Z,0
2018-02-17T01:10:48.372Z,0
2018-02-17T01:11:28.931Z,0
2018-02-17T01:12:09.486Z,0
2018-02-17T01:12:50.054Z,0
2018-02-17T01:13:30.585Z,0
2018-02-17T01:14:11.151Z,0
2018-02-17T01:14:51.731Z,0
2018-02-17T01:15:32.272Z,0
2018-02-17T01:16:12.818Z,0
2018-02-17T01:16:53.374Z,0
2018-02-17T01:17:33.898Z,0
2018-02-17T01:18:14.442Z,0
2018-02-17T01:18:55.005Z,0
2018-02-17T01:19:35.557Z,0
2018-02-17T01:20:16.107Z,0
2018-02-17T01:20:56.664Z,0
2018-02-17T01:21:37.208Z,0
2018-02-17T01:22:17.768Z,0
2018-02-17T01:22:58.326Z,0
2018-02-17T01:23:38.857Z,0
2018-02-17T01:24:19.404Z,0
2018-02-17T01:24:59.973Z,0
2018-02-17T01:25:40.537Z,0
2018-02-17T01:26:21.101Z,0
2018-02-17T01:27:01.652Z,0
2018-02-17T01:27:42.207Z,0
2018-02-17T01:28:22.763Z,0
2018-02-17T01:29:03.314Z,0
2018-02-17T01:29:43.868Z,0
2018-02-17T01:30:24.430Z,0
2018-02-17T01:31:05.005Z,0
2018-02-17T01:31:45.519Z,0
2018-02-17T01:32:26.065Z,0
2018-02-17T01:33:06.615Z,0
2018-02-17T01:33:47.172Z,0
2018-02-17T01:34:27.715Z,0
2018-02-17T01:35:08.301Z,0
2018-02-17T01:35:48.846Z,0
2018-02-17T01:36:29.406Z,0
2018-02-17T01:37:09.975Z,0
2018-02-17T01:37:50.516Z,0
2018-02-17T01:38:31.099Z,0
2018-02-17T01:39:11.643Z,0
2018-02-17T01:39:52.181Z,0
2018-02-17T01:40:32.734Z,0
2018-02-17T01:41:13.277Z,0
2018-02-17T01:41:53.850Z,0
2018-02-17T01:42:34.434Z,0
2018-02-17T01:43:14.983Z,0
2018-02-17T01:43:55.550Z,0
2018-02-17T01:44:36.094Z,0
2018-02-17T01:45:16.669Z,0
2018-02-17T01:45:57.197Z,0
2018-02-17T01:46:37.756Z,0
2018-02-17T01:47:18.313Z,0
2018-02-17T01:47:58.870Z,0
2018-02-17T01:48:39.457Z,0
2018-02-17T01:49:20.015Z,0
2018-02-17T01:50:00.563Z,0
2018-02-17T01:50:41.120Z,0
2018-02-17T01:51:21.683Z,0
2018-02-17T01:52:02.237Z,0
2018-02-17T01:52:42.796Z,0
2018-02-17T01:53:23.360Z,0
2018-02-17T01:54:04.663Z,0
2018-02-17T01:54:45.207Z,0
2018-02-17T01:55:25.745Z,0
2018-02-17T01:56:06.298Z,0
2018-02-17T01:56:46.856Z,0
2018-02-17T01:57:27.409Z,0
2018-02-17T01:58:07.959Z,0
2018-02-17T01:58:48.515Z,0
2018-02-17T01:59:29.086Z,0
2018-02-17T02:00:09.631Z,0
2018-02-17T02:00:50.214Z,0
2018-02-17T02:01:30.757Z,0
2018-02-17T02:02:11.300Z,0
2018-02-17T02:02:51.799Z,0
2018-02-17T02:03:32.342Z,0
2018-02-17T02:04:12.940Z,0
2018-02-17T02:04:53.479Z,0
2018-02-17T02:05:34.023Z,0
2018-02-17T02:06:14.606Z,0
2018-02-17T02:06:55.129Z,0
2018-02-17T02:07:35.723Z,0
2018-02-17T02:08:16.246Z,0
2018-02-17T02:08:56.809Z,0
2018-02-17T02:09:37.334Z,0
2018-02-17T02:10:17.922Z,0
2018-02-17T02:10:58.452Z,0
2018-02-17T02:11:38.989Z,0
2018-02-17T02:12:19.565Z,0
2018-02-17T02:13:00.137Z,0
2018-02-17T02:13:40.673Z,0
2018-02-17T02:14:21.219Z,0
2018-02-17T02:15:01.769Z,0
2018-02-17T02:15:42.317Z,0
2018-02-17T02:16:22.868Z,0
2018-02-17T02:17:03.422Z,0
2018-02-17T02:17:43.982Z,0
2018-02-17T02:18:24.543Z,0
2018-02-17T02:19:05.117Z,0
2018-02-17T02:19:45.660Z,0
2018-02-17T02:20:26.204Z,0
2018-02-17T02:21:06.761Z,0
2018-02-17T02:21:47.319Z,0
2018-02-17T02:22:27.872Z,0
2018-02-17T02:23:08.427Z,0
2018-02-17T02:23:48.984Z,0
2018-02-17T02:24:29.569Z,0
2018-02-17T02:25:10.128Z,0
2018-02-17T02:25:50.672Z,0
2018-02-17T02:26:31.212Z,0
2018-02-17T02:27:11.780Z,0
2018-02-17T02:27:52.327Z,0
2018-02-17T02:28:32.919Z,0
2018-02-17T02:29:13.470Z,0
2018-02-17T02:29:54.166Z,0
2018-02-17T02:30:34.728Z,0
2018-02-17T02:31:15.300Z,0
2018-02-17T02:31:55.887Z,0
2018-02-17T02:32:36.430Z,0
2018-02-17T02:33:17.008Z,0
2018-02-17T02:33:57.596Z,0
2018-02-17T02:34:38.145Z,0
2018-02-17T02:35:18.721Z,0
2018-02-17T02:35:59.266Z,0
2018-02-17T02:36:39.821Z,0
2018-02-17T02:37:20.362Z,0
2018-02-17T02:38:00.959Z,0
2018-02-17T02:38:41.473Z,0
2018-02-17T02:39:22.018Z,0
2018-02-17T02:40:02.594Z,0
2018-02-17T02:40:43.129Z,0
2018-02-17T02:41:23.713Z,0
2018-02-17T02:42:04.236Z,0
2018-02-17T02:42:44.802Z,0
2018-02-17T02:43:25.351Z,0
2018-02-17T02:44:05.918Z,0
2018-02-17T02:44:46.463Z,0
2018-02-17T02:45:27.035Z,0
2018-02-17T02:46:07.571Z,0
2018-02-17T02:46:48.138Z,0
2018-02-17T02:47:28.694Z,0
2018-02-17T02:48:09.240Z,0
2018-02-17T02:48:49.802Z,0
2018-02-17T02:49:30.361Z,0
2018-02-17T02:50:10.913Z,0
2018-02-17T02:50:51.467Z,0
2018-02-17T02:51:32.032Z,0
2018-02-17T02:52:12.589Z,0
2018-02-17T02:52:53.155Z,0
2018-02-17T02:53:33.728Z,0
2018-02-17T02:54:14.286Z,0
2018-02-17T02:54:54.837Z,0
2018-02-17T02:55:35.398Z,0
2018-02-17T02:56:15.963Z,0
2018-02-17T02:56:57.084Z,0
2018-02-17T02:57:37.656Z,0
2018-02-17T02:58:18.178Z,0
2018-02-17T02:58:58.728Z,0
2018-02-17T02:59:39.301Z,0
2018-02-17T03:00:19.904Z,0
2018-02-17T03:01:00.485Z,0
2018-02-17T03:01:41.024Z,0
2018-02-17T03:02:21.690Z,0
2018-02-17T03:03:02.235Z,0
2018-02-17T03:03:42.799Z,0
2018-02-17T03:04:23.426Z,0
2018-02-17T03:05:03.953Z,0
2018-02-17T03:05:44.509Z,0
2018-02-17T03:06:25.064Z,0
2018-02-17T03:07:05.637Z,0
2018-02-17T03:07:46.205Z,0
2018-02-17T03:08:26.777Z,0
2018-02-17T03:09:07.359Z,0
2018-02-17T03:09:47.941Z,0
2018-02-17T03:10:28.477Z,0
2018-02-17T03:11:09.033Z,0
2018-02-17T03:11:49.604Z,0
2018-02-17T03:12:30.275Z,0
2018-02-17T03:13:10.843Z,0
2018-02-17T03:13:51.389Z,0
2018-02-17T03:14:31.945Z,0
2018-02-17T03:15:12.558Z,0
2018-02-17T03:15:53.179Z,0
2018-02-17T03:16:33.725Z,0
2018-02-17T03:17:14.276Z,0
2018-02-17T03:17:54.848Z,0
2018-02-17T03:18:35.410Z,0
2018-02-17T03:19:15.982Z,0
2018-02-17T03:19:56.543Z,0
2018-02-17T03:20:37.092Z,0
2018-02-17T03:21:17.657Z,0
2018-02-17T03:21:58.214Z,0
2018-02-17T03:22:38.764Z,0
2018-02-17T03:23:19.380Z,0
2018-02-17T03:23:59.913Z,0
2018-02-17T03:24:40.460Z,0
2018-02-17T03:25:21.035Z,0
2018-02-17T03:26:01.671Z,0
2018-02-17T03:26:42.196Z,0
2018-02-17T03:27:22.766Z,0
2018-02-17T03:28:03.319Z,0
2018-02-17T03:28:43.976Z,0
2018-02-17T03:29:24.531Z,0
2018-02-17T03:30:05.085Z,0
2018-02-17T03:30:45.633Z,0
2018-02-17T03:31:26.204Z,0
2018-02-17T03:32:06.782Z,0
2018-02-17T03:32:47.336Z,0
2018-02-17T03:33:27.893Z,0
2018-02-17T03:34:08.459Z,0
2018-02-17T03:34:49.011Z,0
2018-02-17T03:35:29.576Z,0
2018-02-17T03:36:10.116Z,0
2018-02-17T03:36:50.689Z,0
2018-02-17T03:37:31.253Z,0
2018-02-17T03:38:11.807Z,0
2018-02-17T03:38:52.352Z,0
2018-02-17T03:39:32.914Z,0
2018-02-17T03:40:13.476Z,0
2018-02-17T03:40:54.081Z,0
2018-02-17T03:41:34.646Z,0
2018-02-17T03:42:15.219Z,0
2018-02-17T03:42:55.800Z,0
2018-02-17T03:43:36.317Z,0
2018-02-17T03:44:16.947Z,0
2018-02-17T03:44:57.493Z,0
2018-02-17T03:45:38.073Z,0
2018-02-17T03:46:18.620Z,0
2018-02-17T03:46:59.271Z,0
2018-02-17T03:47:39.737Z,0
2018-02-17T03:48:20.321Z,0
2018-02-17T03:49:00.859Z,0
2018-02-17T03:49:41.391Z,0
2018-02-17T03:50:21.936Z,0
2018-02-17T03:51:02.494Z,0
2018-02-17T03:51:43.035Z,0
2018-02-17T03:52:23.585Z,0
2018-02-17T03:53:04.134Z,0
2018-02-17T03:53:44.689Z,0
2018-02-17T03:54:25.247Z,0
2018-02-17T03:55:05.791Z,0
2018-02-17T03:55:46.343Z,0
2018-02-17T03:56:26.897Z,0
2018-02-17T03:57:07.444Z,0
2018-02-17T03:57:48.004Z,0
2018-02-17T03:58:28.542Z,0
2018-02-17T03:59:09.103Z,0
2018-02-17T03:59:49.654Z,0
2018-02-17T04:00:30.205Z,0
2018-02-17T04:01:10.781Z,0
2018-02-17T04:01:51.302Z,0
2018-02-17T04:02:31.871Z,0
2018-02-17T04:03:12.408Z,0
2018-02-17T04:03:52.973Z,0
2018-02-17T04:04:33.509Z,0
2018-02-17T04:05:14.053Z,0
2018-02-17T04:05:54.610Z,0
2018-02-17T04:06:35.148Z,0
2018-02-17T04:07:15.721Z,0
2018-02-17T04:07:56.262Z,0
2018-02-17T04:08:36.820Z,0
2018-02-17T04:09:17.401Z,0
2018-02-17T04:09:57.977Z,0
2018-02-17T04:10:38.543Z,0
2018-02-17T04:11:19.102Z,0
2018-02-17T04:11:59.676Z,0
2018-02-17T04:12:40.231Z,0
2018-02-17T04:13:20.928Z,0
2018-02-17T04:14:01.482Z,0
2018-02-17T04:14:42.045Z,0
2018-02-17T04:15:22.580Z,0
2018-02-17T04:16:03.144Z,0
2018-02-17T04:16:43.704Z,0
2018-02-17T04:17:24.251Z,0
2018-02-17T04:18:04.835Z,0
2018-02-17T04:18:45.380Z,0
2018-02-17T04:19:25.931Z,0
2018-02-17T04:20:06.521Z,0
2018-02-17T04:20:47.109Z,0
2018-02-17T04:21:27.650Z,0
2018-02-17T04:22:08.197Z,0
2018-02-17T04:22:48.748Z,0
2018-02-17T04:23:29.304Z,0
2018-02-17T04:24:09.854Z,0
2018-02-17T04:24:50.403Z,0
2018-02-17T04:25:30.989Z,0
2018-02-17T04:26:11.580Z,0
2018-02-17T04:26:52.125Z,0
2018-02-17T04:27:32.690Z,0
2018-02-17T04:28:13.227Z,0
2018-02-17T04:28:53.788Z,0
2018-02-17T04:29:34.339Z,0
2018-02-17T04:30:14.888Z,0
2018-02-17T04:30:55.441Z,0
2018-02-17T04:31:35.989Z,0
2018-02-17T04:32:16.534Z,0
2018-02-17T04:32:57.090Z,0
2018-02-17T04:33:37.641Z,0
2018-02-17T04:34:18.185Z,0
2018-02-17T04:34:58.751Z,0
2018-02-17T04:35:39.299Z,0
2018-02-17T04:36:19.851Z,0
2018-02-17T04:37:00.399Z,0
2018-02-17T04:37:40.941Z,0
2018-02-17T04:38:21.500Z,0
2018-02-17T04:39:02.054Z,0
2018-02-17T04:39:42.615Z,0
2018-02-17T04:40:23.177Z,0
2018-02-17T04:41:03.767Z,0
2018-02-17T04:41:44.468Z,0
2018-02-17T04:42:25.038Z,0
2018-02-17T04:43:05.568Z,0
2018-02-17T04:43:46.130Z,0
2018-02-17T04:44:26.678Z,0
2018-02-17T04:45:07.221Z,0
2018-02-17T04:45:47.766Z,0
2018-02-17T04:46:28.332Z,0
2018-02-17T04:47:08.925Z,0
2018-02-17T04:47:49.480Z,0
2018-02-17T04:48:30.026Z,0
2018-02-17T04:49:10.562Z,0
2018-02-17T04:49:51.131Z,0
2018-02-17T04:50:31.689Z,0
2018-02-17T04:51:12.258Z,0
2018-02-17T04:51:52.816Z,0
2018-02-17T04:52:33.367Z,0
2018-02-17T04:53:13.940Z,0
2018-02-17T04:53:54.475Z,0
2018-02-17T04:54:35.040Z,0
2018-02-17T04:55:15.606Z,0
2018-02-17T04:55:56.132Z,0
2018-02-17T04:56:36.710Z,0
2018-02-17T04:57:17.243Z,0
2018-02-17T04:57:57.818Z,0
2018-02-17T04:58:38.367Z,0
2018-02-17T04:59:18.920Z,0
2018-02-17T04:59:59.505Z,0
2018-02-17T05:00:40.071Z,0
2018-02-17T05:01:20.659Z,0
2018-02-17T05:02:01.216Z,0
2018-02-17T05:02:41.786Z,0
2018-02-17T05:03:22.341Z,0
2018-02-17T05:04:02.889Z,0
2018-02-17T05:04:43.444Z,0
2018-02-17T05:05:24.041Z,0
2018-02-17T05:06:04.581Z,0
2018-02-17T05:06:45.142Z,0
2018-02-17T05:07:25.717Z,0
2018-02-17T05:08:06.258Z,0
2018-02-17T05:08:46.807Z,0
2018-02-17T05:09:27.369Z,0
2018-02-17T05:10:07.917Z,0
2018-02-17T05:10:48.486Z,0
2018-02-17T05:11:29.096Z,0
2018-02-17T05:12:09.654Z,0
2018-02-17T05:12:50.194Z,0
2018-02-17T05:13:30.745Z,0
2018-02-17T05:14:11.305Z,0
2018-02-17T05:14:51.982Z,0
2018-02-17T05:15:32.535Z,0
2018-02-17T05:16:13.088Z,0
2018-02-17T05:16:53.652Z,0
2018-02-17T05:17:34.175Z,0
2018-02-17T05:18:14.721Z,0
2018-02-17T05:18:55.276Z,0
2018-02-17T05:19:35.851Z,0
2018-02-17T05:20:16.398Z,0
2018-02-17T05:20:56.946Z,0
2018-02-17T05:21:37.548Z,0
2018-02-17T05:22:18.104Z,0
2018-02-17T05:22:58.665Z,0
2018-02-17T05:23:39.231Z,0
2018-02-17T05:24:19.780Z,0
2018-02-17T05:25:00.340Z,0
2018-02-17T05:25:40.908Z,0
2018-02-17T05:26:21.462Z,0
2018-02-17T05:27:01.985Z,0
2018-02-17T05:27:42.548Z,0
2018-02-17T05:28:23.108Z,0
2018-02-17T05:29:03.671Z,0
2018-02-17T05:29:44.234Z,0
2018-02-17T05:30:24.787Z,0
2018-02-17T05:31:05.340Z,0
2018-02-17T05:31:45.971Z,0
2018-02-17T05:32:26.572Z,0
2018-02-17T05:33:07.135Z,0
2018-02-17T05:33:47.760Z,0
2018-02-17T05:34:28.290Z,0
2018-02-17T05:35:08.848Z,0
2018-02-17T05:35:49.398Z,0
2018-02-17T05:36:29.949Z,0
2018-02-17T05:37:10.498Z,0
2018-02-17T05:37:51.055Z,0
2018-02-17T05:38:31.589Z,0
2018-02-17T05:39:12.136Z,0
2018-02-17T05:39:52.686Z,0
2018-02-17T05:40:33.320Z,0
2018-02-17T05:41:13.879Z,0
2018-02-17T05:41:54.429Z,0
2018-02-17T05:42:35.002Z,0
2018-02-17T05:43:15.544Z,0
2018-02-17T05:43:56.268Z,0
2018-02-17T05:44:36.937Z,0
2018-02-17T05:45:17.511Z,0
2018-02-17T05:45:58.189Z,0
2018-02-17T05:46:38.694Z,0
2018-02-17T05:47:19.270Z,0
2018-02-17T05:47:59.925Z,0
2018-02-17T05:48:40.578Z,0
2018-02-17T05:49:21.188Z,0
2018-02-17T05:50:01.760Z,0
2018-02-17T05:50:42.324Z,0
2018-02-17T05:51:22.870Z,0
2018-02-17T05:52:03.459Z,0
2018-02-17T05:52:44.038Z,0
2018-02-17T05:53:24.589Z,0
2018-02-17T05:54:05.192Z,0
2018-02-17T05:54:45.798Z,0
2018-02-17T05:55:26.342Z,4
2018-02-17T05:56:06.887Z,4
2018-02-17T05:56:47.434Z,0
2018-02-17T05:57:27.995Z,0
2018-02-17T05:58:08.562Z,0
2018-02-17T05:58:49.166Z,4
2018-02-17T05:59:29.743Z,4
2018-02-17T06:00:10.262Z,4
2018-02-17T06:00:50.821Z,4
2018-02-17T06:01:31.403Z,4
2018-02-17T06:02:11.972Z,4
2018-02-17T06:02:52.543Z,4
2018-02-17T06:03:33.153Z,4
2018-02-17T06:04:13.718Z,4
2018-02-17T06:04:54.274Z,8
2018-02-17T06:05:34.823Z,8
2018-02-17T06:06:15.372Z,8
2018-02-17T06:06:55.936Z,8
2018-02-17T06:07:36.480Z,8
2018-02-17T06:08:17.046Z,12
2018-02-17T06:08:57.590Z,12
2018-02-17T06:09:38.188Z,16
2018-02-17T06:10:18.765Z,16
2018-02-17T06:10:59.331Z,16
2018-02-17T06:11:39.879Z,16
2018-02-17T06:12:20.473Z,20
2018-02-17T06:13:01.195Z,20
2018-02-17T06:13:41.753Z,20
2018-02-17T06:14:22.304Z,20
2018-02-17T06:15:02.848Z,24
2018-02-17T06:15:43.401Z,28
2018-02-17T06:16:23.949Z,28
2018-02-17T06:17:04.507Z,28
2018-02-17T06:17:45.059Z,32
2018-02-17T06:18:25.608Z,32
2018-02-17T06:19:06.177Z,36
2018-02-17T06:19:46.744Z,40
2018-02-17T06:20:27.300Z,44
2018-02-17T06:21:07.889Z,48
2018-02-17T06:21:48.449Z,48
2018-02-17T06:22:29.009Z,56
2018-02-17T06:23:09.601Z,56
2018-02-17T06:23:50.141Z,60
2018-02-17T06:24:30.692Z,64
2018-02-17T06:25:11.230Z,68
2018-02-17T06:25:51.776Z,68
2018-02-17T06:26:32.357Z,76
2018-02-17T06:27:13.090Z,80
2018-02-17T06:27:53.629Z,84
2018-02-17T06:28:34.185Z,84
2018-02-17T06:29:14.740Z,92
2018-02-17T06:29:55.280Z,92
2018-02-17T06:30:35.834Z,100
2018-02-17T06:31:16.407Z,100
2018-02-17T06:31:56.955Z,108
2018-02-17T06:32:37.496Z,108
2018-02-17T06:33:18.050Z,112
2018-02-17T06:33:58.592Z,116
2018-02-17T06:34:39.146Z,120
2018-02-17T06:35:19.711Z,128
2018-02-17T06:36:00.248Z,128
2018-02-17T06:36:40.789Z,136
2018-02-17T06:37:22.112Z,140
2018-02-17T06:38:02.639Z,144
2018-02-17T06:38:43.200Z,148
2018-02-17T06:39:23.802Z,152
2018-02-17T06:40:04.499Z,160
2018-02-17T06:40:45.056Z,164
2018-02-17T06:41:25.632Z,176
2018-02-17T06:42:06.200Z,184
2018-02-17T06:42:46.898Z,188
2018-02-17T06:43:27.453Z,196
2018-02-17T06:44:08.056Z,208
2018-02-17T06:44:48.566Z,216
2018-02-17T06:45:29.130Z,224
2018-02-17T06:46:09.666Z,232
2018-02-17T06:46:50.208Z,232
2018-02-17T06:47:30.769Z,240
2018-02-17T06:48:11.329Z,244
2018-02-17T06:48:51.931Z,248
2018-02-17T06:49:32.485Z,256
2018-02-17T06:50:13.046Z,260
2018-02-17T06:50:53.615Z,268
2018-02-17T06:51:34.153Z,272
2018-02-17T06:52:14.707Z,276
2018-02-17T06:52:55.257Z,280
2018-02-17T06:53:35.818Z,288
2018-02-17T06:54:16.367Z,292
2018-02-17T06:54:56.914Z,296
2018-02-17T06:55:37.462Z,300
2018-02-17T06:56:18.018Z,304
2018-02-17T06:56:58.644Z,312
2018-02-17T06:57:39.153Z,316
2018-02-17T06:58:19.673Z,320
2018-02-17T06:59:00.226Z,324
2018-02-17T06:59:40.792Z,332
2018-02-17T07:00:21.348Z,336
2018-02-17T07:01:01.892Z,344
2018-02-17T07:01:42.455Z,348
2018-02-17T07:02:23.013Z,352
2018-02-17T07:03:03.548Z,360
2018-02-17T07:03:44.101Z,368
2018-02-17T07:04:24.648Z,376
2018-02-17T07:05:05.434Z,388
2018-02-17T07:05:46.012Z,400
2018-02-17T07:06:26.578Z,412
2018-02-17T07:07:07.324Z,428
2018-02-17T07:07:48.010Z,440
2018-02-17T07:08:28.512Z,448
2018-02-17T07:09:09.062Z,460
2018-02-17T07:09:49.605Z,464
2018-02-17T07:10:30.183Z,472
2018-02-17T07:11:10.916Z,480
2018-02-17T07:11:51.493Z,484
2018-02-17T07:12:32.132Z,488
2018-02-17T07:13:12.833Z,488
2018-02-17T07:16:57.830Z,508
2018-02-17T07:17:38.556Z,516
2018-02-17T07:18:19.122Z,516
2018-02-17T07:18:59.676Z,520
2018-02-17T07:19:40.215Z,524
2018-02-17T07:20:20.758Z,536
2018-02-17T07:21:01.314Z,544
2018-02-17T07:21:41.874Z,552
2018-02-17T07:22:22.436Z,560
2018-02-17T07:23:02.976Z,564
2018-02-17T07:23:43.522Z,572
2018-02-17T07:24:24.096Z,572
2018-02-17T07:25:04.648Z,576
2018-02-17T07:25:45.208Z,584
2018-02-17T07:26:25.749Z,592
2018-02-17T07:27:06.310Z,600
2018-02-17T07:27:46.846Z,600
2018-02-17T07:28:27.409Z,608
2018-02-17T07:29:07.981Z,612
2018-02-17T07:29:48.545Z,612
2018-02-17T07:30:29.256Z,604
2018-02-17T07:31:09.820Z,600
2018-02-17T07:31:50.389Z,596
2018-02-17T07:32:30.951Z,596
2018-02-17T07:33:11.548Z,584
2018-02-17T07:33:52.107Z,572
2018-02-17T07:34:32.627Z,572
2018-02-17T07:35:13.321Z,572
2018-02-17T07:35:53.949Z,568
2018-02-17T07:36:34.507Z,564
2018-02-17T07:37:15.047Z,572
2018-02-17T07:37:55.628Z,584
2018-02-17T07:38:36.339Z,600
2018-02-17T07:39:17.559Z,616
2018-02-17T07:39:57.799Z,636
2018-02-17T07:40:39.857Z,652
2018-02-17T07:41:20.388Z,684
2018-02-17T07:42:00.936Z,696
2018-02-17T07:42:41.616Z,700
2018-02-17T07:43:23.141Z,724
2018-02-17T07:44:03.678Z,720
2018-02-17T07:44:45.533Z,680
2018-02-17T07:45:26.129Z,704
2018-02-17T07:46:06.681Z,760
2018-02-17T07:46:47.214Z,776
2018-02-17T07:47:27.887Z,768
2018-02-17T07:48:08.489Z,776
2018-02-17T07:48:49.045Z,768
2018-02-17T07:49:29.578Z,780
2018-02-17T07:50:10.134Z,800
2018-02-17T07:50:50.720Z,824
2018-02-17T07:51:31.277Z,844
2018-02-17T07:52:11.935Z,848
2018-02-17T07:52:52.580Z,856
2018-02-17T07:53:33.131Z,864
2018-02-17T07:54:13.687Z,888
2018-02-17T07:54:54.389Z,896
2018-02-17T07:55:37.162Z,880
2018-02-17T07:56:16.302Z,880
2018-02-17T07:56:56.893Z,912
2018-02-17T07:57:37.432Z,936
2018-02-17T07:58:17.984Z,944
2018-02-17T07:58:58.563Z,952
2018-02-17T07:59:39.276Z,940
2018-02-17T08:00:20.318Z,920
2018-02-17T08:01:00.852Z,916
2018-02-17T08:01:41.488Z,948
2018-02-17T08:02:22.009Z,948
2018-02-17T08:03:02.601Z,960
2018-02-17T08:03:43.159Z,976
2018-02-17T08:04:23.720Z,948
2018-02-17T08:05:04.288Z,892
2018-02-17T08:05:44.820Z,944
2018-02-17T08:06:25.406Z,976
2018-02-17T08:07:05.965Z,992
2018-02-17T08:07:53.222Z,1020
2018-02-17T08:08:33.769Z,1068
2018-02-17T08:09:14.323Z,1088
2018-02-17T08:09:54.884Z,1068
2018-02-17T08:10:35.410Z,1036
2018-02-17T08:11:15.977Z,988
2018-02-17T08:11:56.619Z,984
2018-02-17T08:12:37.266Z,1012
2018-02-17T08:13:17.933Z,988
2018-02-17T08:13:58.506Z,964
2018-02-17T08:14:39.345Z,952
2018-02-17T08:15:20.073Z,952
2018-02-17T08:16:00.739Z,972
2018-02-17T08:16:41.385Z,1016
2018-02-17T08:17:21.953Z,1048
2018-02-17T08:18:02.522Z,1064
2018-02-17T08:18:44.210Z,1068
2018-02-17T08:19:24.852Z,1072
2018-02-17T08:20:05.542Z,1056
2018-02-17T08:20:46.271Z,1044
2018-02-17T08:21:26.947Z,1020
2018-02-17T08:22:07.681Z,1000
2018-02-17T08:22:50.183Z,1024
2018-02-17T08:23:31.339Z,1020
2018-02-17T08:24:12.492Z,1020
2018-02-17T08:24:53.094Z,1024
2018-02-17T08:25:33.702Z,1016
2018-02-17T08:26:14.281Z,984
2018-02-17T08:26:54.914Z,980
2018-02-17T08:27:35.508Z,1008
2018-02-17T08:28:16.088Z,1044
2018-02-17T08:28:56.625Z,1056
2018-02-17T08:29:37.168Z,1068
2018-02-17T08:30:17.778Z,1100
2018-02-17T08:30:58.337Z,1108
2018-02-17T08:31:38.948Z,1120
2018-02-17T08:32:19.542Z,1152
2018-02-17T08:33:00.108Z,1156
2018-02-17T08:33:40.741Z,1172
2018-02-17T08:34:21.289Z,1196
2018-02-17T08:35:01.846Z,1232
2018-02-17T08:35:42.412Z,1240
2018-02-17T08:36:23.215Z,1184
2018-02-17T08:37:03.788Z,1172
2018-02-17T08:37:44.347Z,1176
2018-02-17T08:38:25.015Z,1156
2018-02-17T08:39:06.305Z,1128
2018-02-17T08:39:47.109Z,1132
2018-02-17T08:40:28.016Z,1168
2018-02-17T08:41:09.115Z,1204
2018-02-17T08:41:50.818Z,1240
2018-02-17T08:42:31.924Z,1256
2018-02-17T08:43:12.598Z,1248
2018-02-17T08:43:53.210Z,1248
2018-02-17T08:44:33.849Z,1300
2018-02-17T08:45:15.705Z,1344
2018-02-17T08:45:56.310Z,1388
2018-02-17T08:46:36.843Z,1400
2018-02-17T08:47:17.386Z,1420
2018-02-17T08:47:58.023Z,1452
2018-02-17T08:48:38.719Z,1532
2018-02-17T08:49:19.743Z,1576
2018-02-17T08:50:00.319Z,1596
2018-02-17T08:50:40.887Z,1596
2018-02-17T08:51:21.434Z,1576
2018-02-17T08:52:01.986Z,1584
2018-02-17T08:52:42.560Z,1592
2018-02-17T08:53:23.315Z,1588
2018-02-17T08:54:03.882Z,1604
2018-02-17T08:54:44.470Z,1604
2018-02-17T08:55:25.121Z,1620
2018-02-17T08:56:05.793Z,1592
2018-02-17T08:56:46.354Z,1424
2018-02-17T09:02:03.488Z,1208
2018-02-17T09:02:44.072Z,1304
2018-02-17T09:03:26.468Z,1348
2018-02-17T09:04:07.312Z,1364
2018-02-17T09:04:48.024Z,1520
2018-02-17T09:05:28.591Z,1576
2018-02-17T09:06:09.163Z,1592
2018-02-17T09:06:49.769Z,1632
2018-02-17T09:07:30.332Z,1660
2018-02-17T09:08:10.919Z,1716
2018-02-17T09:08:51.442Z,1748
2018-02-17T09:09:31.995Z,1792
2018-02-17T09:10:12.542Z,1820
2018-02-17T09:10:53.099Z,1844
2018-02-17T09:11:33.742Z,1868
2018-02-17T09:12:14.328Z,1864
2018-02-17T09:12:55.077Z,1840
2018-02-17T09:13:35.715Z,1816
2018-02-17T09:14:16.332Z,1788
2018-02-17T09:14:56.890Z,1780
2018-02-17T09:15:37.437Z,1772
2018-02-17T09:16:24.619Z,1772
2018-02-17T09:17:05.215Z,1768
2018-02-17T09:17:45.891Z,1764
2018-02-17T09:18:26.430Z,1776
2018-02-17T09:19:06.973Z,1808
2018-02-17T09:19:47.619Z,1832
2018-02-17T09:23:32.601Z,1824
2018-02-17T09:24:13.167Z,1820
2018-02-17T09:24:53.771Z,1828
2018-02-17T09:25:34.394Z,1840
2018-02-17T09:26:15.071Z,1844
2018-02-17T09:26:55.650Z,1856
2018-02-17T09:27:36.245Z,1872
2018-02-17T09:28:16.802Z,1884
2018-02-17T09:28:57.386Z,1888
2018-02-17T09:29:37.971Z,1884
2018-02-17T09:30:18.578Z,1864
2018-02-17T09:30:59.209Z,1848
2018-02-17T09:31:39.794Z,1832
2018-02-17T09:32:20.432Z,1804
2018-02-17T09:33:00.981Z,1792
2018-02-17T09:33:41.512Z,1792
2018-02-17T09:34:22.075Z,1804
2018-02-17T09:35:02.773Z,1832
2018-02-17T09:35:43.419Z,1868
2018-02-17T09:36:25.575Z,1888
2018-02-17T09:37:07.351Z,1908
2018-02-17T09:37:50.378Z,1932
2018-02-17T09:38:31.060Z,1924
2018-02-17T09:39:11.634Z,1916
2018-02-17T09:39:52.168Z,1932
2018-02-17T09:40:32.714Z,1952
2018-02-17T09:41:13.268Z,1952
2018-02-17T09:41:53.850Z,1936
2018-02-17T09:42:34.612Z,1920
2018-02-17T09:43:15.474Z,1936
2018-02-17T09:43:56.190Z,1972
2018-02-17T09:44:36.808Z,1976
2018-02-17T09:45:17.376Z,1960
2018-02-17T09:45:58.510Z,1940
2018-02-17T09:46:39.372Z,1960
2018-02-17T09:47:22.378Z,1996
2018-02-17T09:48:06.996Z,2012
2018-02-17T09:48:48.869Z,2036
2018-02-17T09:49:32.183Z,2056
2018-02-17T09:50:13.219Z,2076
2018-02-17T09:50:56.587Z,2076
2018-02-17T09:51:37.986Z,2048
2018-02-17T09:52:19.741Z,2044
2018-02-17T09:53:01.581Z,2076
2018-02-17T09:53:42.176Z,2100